createdAt,value
2018-12-13T00:02:08.256Z,6.92
2018-12-13T00:04:36.637Z,7.17
2018-12-13T00:07:05.728Z,6.87
2018-12-13T00:09:34.034Z,7.37
2018-12-13T00:12:02.355Z,7.30
2018-12-13T00:14:30.672Z,7.47
2018-12-13T00:16:59.046Z,6.90
2018-12-13T00:19:27.404Z,7.45
2018-12-13T00:21:56.096Z,7.10
2018-12-13T00:24:24.395Z,8.18
2018-12-13T00:26:52.970Z,7.20
2018-12-13T00:29:21.508Z,7.20
2018-12-13T00:31:50.151Z,7.12
2018-12-13T00:34:19.286Z,7.20
2018-12-13T00:36:47.611Z,6.97
2018-12-13T00:39:15.911Z,7.05
2018-12-13T00:41:44.302Z,7.47
2018-12-13T00:44:12.658Z,7.17
2018-12-13T00:46:41.650Z,7.80
2018-12-13T00:49:10.587Z,7.67
2018-12-13T00:51:38.918Z,7.37
2018-12-13T00:54:07.770Z,7.35
2018-12-13T00:56:36.083Z,7.65
2018-12-13T00:59:04.682Z,7.75
2018-12-13T01:01:32.991Z,8.60
2018-12-13T01:04:01.315Z,8.23
2018-12-13T01:06:29.614Z,7.60
2018-12-13T01:08:58.639Z,8.28
2018-12-13T01:11:27.807Z,8.40
2018-12-13T01:13:56.178Z,7.55
2018-12-13T01:16:24.497Z,7.45
2018-12-13T01:18:53.671Z,8.03
2018-12-13T01:21:22.282Z,8.65
2018-12-13T01:23:50.841Z,9.00
2018-12-13T01:26:19.522Z,9.03
2018-12-13T01:28:47.903Z,8.58
2018-12-13T01:31:16.295Z,8.58
2018-12-13T01:33:45.618Z,8.60
2018-12-13T01:36:14.782Z,9.28
2018-12-13T01:38:43.091Z,9.33
2018-12-13T01:41:12.172Z,9.25
2018-12-13T01:43:40.746Z,8.00
2018-12-13T01:46:09.135Z,8.00
2018-12-13T01:48:37.967Z,10.60
2018-12-13T01:51:06.408Z,10.05
2018-12-13T01:53:35.297Z,9.35
2018-12-13T01:56:03.847Z,8.05
2018-12-13T01:58:32.189Z,9.60
2018-12-13T02:01:00.538Z,8.48
2018-12-13T02:03:29.103Z,8.23
2018-12-13T02:05:57.555Z,9.03
2018-12-13T02:08:25.884Z,8.25
2018-12-13T02:10:54.511Z,9.30
2018-12-13T02:13:22.957Z,9.23
2018-12-13T02:15:51.502Z,8.40
2018-12-13T02:18:19.911Z,8.10
2018-12-13T02:20:48.451Z,8.00
2018-12-13T02:23:16.784Z,8.68
2018-12-13T02:25:45.887Z,8.38
2018-12-13T02:28:14.940Z,8.65
2018-12-13T02:30:43.258Z,8.55
2018-12-13T02:33:11.640Z,8.80
2018-12-13T02:35:40.340Z,8.65
2018-12-13T02:38:09.004Z,8.25
2018-12-13T02:40:37.495Z,8.20
2018-12-13T02:43:05.972Z,8.45
2018-12-13T02:45:34.924Z,8.38
2018-12-13T02:48:03.231Z,8.98
2018-12-13T02:50:31.681Z,9.10
2018-12-13T02:53:00.283Z,8.53
2018-12-13T02:55:28.746Z,8.58
2018-12-13T02:57:57.284Z,9.28
2018-12-13T03:00:25.967Z,8.73
2018-12-13T03:02:54.337Z,9.30
2018-12-13T03:05:23.495Z,8.20
2018-12-13T03:07:52.751Z,8.95
2018-12-13T03:10:21.084Z,9.23
2018-12-13T03:12:49.564Z,9.00
2018-12-13T03:15:17.903Z,8.70
2018-12-13T03:17:46.431Z,9.63
2018-12-13T03:20:15.215Z,9.20
2018-12-13T03:22:43.524Z,9.60
2018-12-13T03:25:11.926Z,9.18
2018-12-13T03:27:40.291Z,7.87
2018-12-13T03:30:08.737Z,8.85
2018-12-13T03:32:37.393Z,9.60
2018-12-13T03:35:05.746Z,8.68
2018-12-13T03:37:34.060Z,8.43
2018-12-13T03:40:02.495Z,9.00
2018-12-13T03:42:31.238Z,9.05
2018-12-13T03:44:59.563Z,8.90
2018-12-13T03:47:27.960Z,7.70
2018-12-13T03:49:56.582Z,8.93
2018-12-13T03:52:25.724Z,8.93
2018-12-13T03:54:54.419Z,9.30
2018-12-13T03:57:23.460Z,9.13
2018-12-13T03:59:51.778Z,9.30
2018-12-13T04:02:20.379Z,9.63
2018-12-13T04:04:49.404Z,9.60
2018-12-13T04:07:18.574Z,9.00
2018-12-13T04:09:46.952Z,9.25
2018-12-13T04:12:15.797Z,9.48
2018-12-13T04:14:44.154Z,10.18
2018-12-13T04:17:13.015Z,9.63
2018-12-13T04:19:41.666Z,9.88
2018-12-13T04:22:09.995Z,9.95
2018-12-13T04:24:38.880Z,8.95
2018-12-13T04:27:07.814Z,9.18
2018-12-13T04:29:36.966Z,9.80
2018-12-13T04:32:05.567Z,9.80
2018-12-13T04:34:33.895Z,9.93
2018-12-13T04:37:02.254Z,10.03
2018-12-13T04:39:30.745Z,11.25
2018-12-13T04:41:59.109Z,10.13
2018-12-13T04:44:28.176Z,10.10
2018-12-13T04:46:56.497Z,9.40
2018-12-13T04:49:24.931Z,9.70
2018-12-13T04:51:53.527Z,10.82
2018-12-13T04:54:22.187Z,10.75
2018-12-13T04:56:50.587Z,10.15
2018-12-13T04:59:18.965Z,11.57
2018-12-13T05:01:47.295Z,10.45
2018-12-13T05:04:15.634Z,11.60
2018-12-13T05:06:44.578Z,10.70
2018-12-13T05:09:13.002Z,10.70
2018-12-13T05:11:41.420Z,10.40
2018-12-13T05:14:09.727Z,9.63
2018-12-13T05:16:38.045Z,10.48
2018-12-13T05:19:06.410Z,11.05
2018-12-13T05:21:34.790Z,9.85
2018-12-13T05:24:03.234Z,12.85
2018-12-13T05:26:31.650Z,11.15
2018-12-13T05:28:59.993Z,11.57
2018-12-13T05:31:28.345Z,11.25
2018-12-13T05:33:56.683Z,11.68
2018-12-13T05:36:25.275Z,10.30
2018-12-13T05:38:53.687Z,12.85
2018-12-13T05:41:22.059Z,10.43
2018-12-13T05:43:52.186Z,10.53
2018-12-13T05:46:21.051Z,11.60
2018-12-13T05:48:49.375Z,10.30
2018-12-13T05:51:17.696Z,10.43
2018-12-13T05:53:46.091Z,11.35
2018-12-13T05:56:14.403Z,11.53
2018-12-13T05:58:42.740Z,10.10
2018-12-13T06:01:11.891Z,10.50
2018-12-13T06:03:40.326Z,10.65
2018-12-13T06:06:08.638Z,10.63
2018-12-13T06:08:37.094Z,10.85
2018-12-13T06:11:05.432Z,10.55
2018-12-13T06:13:33.770Z,11.45
2018-12-13T06:16:02.104Z,10.80
2018-12-13T06:18:30.521Z,9.75
2018-12-13T06:20:59.271Z,9.95
2018-12-13T06:23:27.597Z,11.10
2018-12-13T06:25:55.951Z,9.98
2018-12-13T06:28:24.286Z,10.82
2018-12-13T06:30:52.711Z,10.20
2018-12-13T06:33:24.792Z,9.95
2018-12-13T06:35:52.139Z,10.55
2018-12-13T06:38:20.477Z,10.18
2018-12-13T06:40:48.830Z,11.53
2018-12-13T06:43:17.162Z,11.63
2018-12-13T06:45:45.573Z,9.98
2018-12-13T06:48:14.752Z,10.60
2018-12-13T06:50:43.070Z,12.20
2018-12-13T06:53:11.455Z,10.72
2018-12-13T06:55:39.834Z,11.10
2018-12-13T06:58:08.152Z,10.88
2018-12-13T07:00:36.502Z,11.75
2018-12-13T07:03:04.863Z,11.45
2018-12-13T07:05:33.254Z,11.20
2018-12-13T07:08:07.610Z,11.97
2018-12-13T07:10:31.936Z,11.65
2018-12-13T07:13:00.284Z,10.85
2018-12-13T07:15:28.624Z,11.83
2018-12-13T07:17:56.972Z,11.35
2018-12-13T07:20:26.294Z,11.53
2018-12-13T07:22:54.971Z,11.55
2018-12-13T07:25:23.365Z,11.70
2018-12-13T07:27:51.931Z,10.72
2018-12-13T07:30:20.250Z,11.53
2018-12-13T07:32:49.328Z,11.00
2018-12-13T07:35:17.660Z,11.60
2018-12-13T07:37:46.090Z,12.68
2018-12-13T07:40:14.435Z,12.10
2018-12-13T07:42:42.766Z,11.90
2018-12-13T07:45:11.221Z,10.63
2018-12-13T07:47:39.567Z,11.40
2018-12-13T07:50:07.915Z,10.85
2018-12-13T07:52:36.330Z,10.70
2018-12-13T07:55:05.016Z,11.70
2018-12-13T07:57:33.380Z,11.70
2018-12-13T08:00:01.786Z,12.00
2018-12-13T08:02:30.317Z,10.82
2018-12-13T08:04:58.639Z,11.80
2018-12-13T08:07:27.609Z,11.63
2018-12-13T08:09:56.051Z,12.10
2018-12-13T08:12:24.437Z,10.95
2018-12-13T08:14:52.779Z,11.60
2018-12-13T08:17:21.111Z,11.35
2018-12-13T08:19:49.882Z,11.48
2018-12-13T08:22:18.255Z,12.45
2018-12-13T08:24:46.635Z,10.45
2018-12-13T08:27:14.983Z,10.40
2018-12-13T08:29:43.784Z,11.90
2018-12-13T08:32:12.188Z,11.30
2018-12-13T08:34:40.511Z,11.10
2018-12-13T08:37:09.762Z,11.97
2018-12-13T08:39:38.151Z,11.35
2018-12-13T08:42:06.648Z,11.78
2018-12-13T08:44:34.983Z,11.50
2018-12-13T08:47:03.398Z,10.63
2018-12-13T08:49:31.771Z,10.50
2018-12-13T08:52:00.877Z,11.53
2018-12-13T08:54:29.189Z,11.48
2018-12-13T08:56:57.629Z,11.08
2018-12-13T08:59:26.088Z,10.58
2018-12-13T09:01:54.700Z,11.53
2018-12-13T09:04:23.157Z,11.03
2018-12-13T09:06:51.758Z,12.05
2018-12-13T09:09:20.675Z,11.05
2018-12-13T09:11:49.426Z,12.40
2018-12-13T09:14:17.829Z,12.70
2018-12-13T09:16:46.156Z,10.85
2018-12-13T09:19:14.507Z,12.63
2018-12-13T09:21:42.851Z,12.93
2018-12-13T09:24:11.538Z,11.83
2018-12-13T09:26:40.249Z,11.40
2018-12-13T09:29:08.626Z,12.93
2018-12-13T09:31:37.007Z,11.60
2018-12-13T09:34:05.585Z,12.68
2018-12-13T09:36:33.938Z,12.15
2018-12-13T09:39:02.595Z,13.15
2018-12-13T09:41:31.037Z,12.00
2018-12-13T09:44:00.486Z,12.33
2018-12-13T09:46:28.856Z,12.15
2018-12-13T09:48:57.201Z,12.70
2018-12-13T09:51:25.537Z,13.28
2018-12-13T09:53:53.888Z,11.48
2018-12-13T09:56:22.225Z,12.60
2018-12-13T09:58:50.782Z,12.07
2018-12-13T10:01:19.147Z,13.60
2018-12-13T10:03:47.576Z,12.28
2018-12-13T10:06:16.366Z,12.63
2018-12-13T10:08:46.416Z,13.72
2018-12-13T10:11:15.110Z,14.10
2018-12-13T10:13:43.472Z,13.68
2018-12-13T10:16:11.836Z,12.93
2018-12-13T10:18:40.220Z,12.45
2018-12-13T10:21:09.076Z,13.30
2018-12-13T10:23:37.412Z,11.90
2018-12-13T10:26:05.766Z,13.35
2018-12-13T10:28:34.244Z,12.68
2018-12-13T10:31:02.930Z,14.13
2018-12-13T10:33:31.311Z,13.95
2018-12-13T10:35:59.655Z,13.05
2018-12-13T10:38:28.077Z,14.05
2018-12-13T10:40:56.834Z,12.90
2018-12-13T10:43:25.749Z,14.90
2018-12-13T10:45:54.091Z,13.85
2018-12-13T10:48:22.519Z,13.48
2018-12-13T10:50:51.001Z,13.10
2018-12-13T10:53:19.789Z,13.50
2018-12-13T10:55:48.521Z,14.18
2018-12-13T10:58:16.844Z,15.15
2018-12-13T11:00:50.707Z,12.07
2018-12-13T11:03:24.618Z,14.00
2018-12-13T11:05:52.979Z,13.72
2018-12-13T11:08:21.522Z,13.10
2018-12-13T11:10:49.951Z,14.20
2018-12-13T11:13:18.283Z,13.48
2018-12-13T11:15:47.265Z,13.30
2018-12-13T11:18:15.668Z,13.20
2018-12-13T11:20:44.842Z,12.85
2018-12-13T11:23:13.247Z,13.32
2018-12-13T11:25:41.617Z,12.65
2018-12-13T11:28:15.615Z,15.88
2018-12-13T11:30:43.956Z,15.45
2018-12-13T11:33:12.272Z,14.35
2018-12-13T11:35:40.644Z,14.30
2018-12-13T11:38:08.986Z,13.60
2018-12-13T11:40:37.353Z,13.95
2018-12-13T11:43:05.791Z,15.30
2018-12-13T11:45:34.215Z,15.05
2018-12-13T11:48:03.163Z,14.00
2018-12-13T11:50:31.578Z,12.95
2018-12-13T11:52:59.927Z,14.68
2018-12-13T11:55:31.226Z,14.55
2018-12-13T11:57:59.742Z,14.18
2018-12-13T12:00:28.592Z,15.30
2018-12-13T12:02:56.960Z,14.18
2018-12-13T12:05:25.341Z,14.58
2018-12-13T12:07:53.659Z,14.83
2018-12-13T12:10:21.999Z,16.02
2018-12-13T12:12:50.317Z,14.93
2018-12-13T12:15:18.736Z,13.60
2018-12-13T12:17:47.249Z,15.48
2018-12-13T12:20:15.571Z,16.85
2018-12-13T12:22:44.010Z,14.75
2018-12-13T12:25:13.099Z,15.45
2018-12-13T12:27:41.442Z,12.95
2018-12-13T12:30:10.014Z,16.05
2018-12-13T12:32:38.460Z,15.80
2018-12-13T12:35:06.937Z,14.63
2018-12-13T12:37:35.967Z,17.17
2018-12-13T12:40:05.128Z,15.40
2018-12-13T12:42:33.530Z,16.82
2018-12-13T12:45:02.103Z,16.37
2018-12-13T12:47:30.783Z,14.60
2018-12-13T12:49:59.163Z,16.07
2018-12-13T12:52:27.614Z,15.85
2018-12-13T12:54:56.064Z,15.78
2018-12-13T12:57:25.317Z,16.62
2018-12-13T12:59:53.654Z,15.53
2018-12-13T13:02:22.376Z,17.65
2018-12-13T13:04:50.898Z,16.35
2018-12-13T13:07:19.508Z,16.50
2018-12-13T13:09:47.822Z,17.60
2018-12-13T13:12:16.259Z,17.00
2018-12-13T13:14:45.120Z,16.17
2018-12-13T13:17:13.555Z,17.32
2018-12-13T13:19:41.983Z,16.55
2018-12-13T13:22:10.718Z,16.45
2018-12-13T13:24:39.035Z,16.45
2018-12-13T13:27:08.183Z,17.67
2018-12-13T13:29:37.550Z,15.93
2018-12-13T13:32:05.988Z,17.25
2018-12-13T13:34:34.306Z,15.85
2018-12-13T13:37:02.643Z,16.30
2018-12-13T13:39:31.869Z,17.77
2018-12-13T13:42:00.512Z,19.25
2018-12-13T13:44:30.590Z,17.15
2018-12-13T13:46:59.245Z,16.20
2018-12-13T13:49:27.592Z,17.67
2018-12-13T13:51:56.153Z,15.63
2018-12-13T13:54:24.486Z,17.32
2018-12-13T13:56:52.842Z,16.42
2018-12-13T13:59:21.818Z,15.75
2018-12-13T14:01:50.221Z,14.63
2018-12-13T14:04:19.047Z,16.17
2018-12-13T14:06:47.639Z,16.02
2018-12-13T14:09:15.971Z,16.27
2018-12-13T14:11:44.350Z,14.73
2018-12-13T14:14:12.731Z,16.50
2018-12-13T14:16:41.217Z,16.93
2018-12-13T14:19:09.623Z,18.02
2018-12-13T14:21:37.940Z,17.60
2018-12-13T14:24:06.678Z,17.05
2018-12-13T14:26:35.024Z,18.07
2018-12-13T14:29:03.921Z,17.62
2018-12-13T14:31:32.320Z,16.17
2018-12-13T14:34:00.875Z,16.35
2018-12-13T14:36:29.227Z,16.27
2018-12-13T14:38:57.563Z,18.02
2018-12-13T14:41:25.945Z,15.55
2018-12-13T14:43:54.251Z,16.62
2018-12-13T14:46:22.611Z,15.13
2018-12-13T14:48:50.943Z,17.35
2018-12-13T14:51:19.355Z,16.90
2018-12-13T14:53:48.190Z,15.15
2018-12-13T14:56:16.539Z,16.40
2018-12-13T14:58:44.887Z,15.83
2018-12-13T15:01:13.182Z,15.40
2018-12-13T15:03:44.271Z,15.65
2018-12-13T15:06:12.572Z,17.48
2018-12-13T15:08:40.902Z,17.20
2018-12-13T15:11:09.263Z,17.23
2018-12-13T15:13:37.654Z,14.33
2018-12-13T15:16:06.020Z,15.58
2018-12-13T15:18:34.376Z,15.30
2018-12-13T15:21:02.702Z,15.60
2018-12-13T15:23:31.031Z,16.23
2018-12-13T15:25:59.967Z,16.57
2018-12-13T15:28:29.154Z,16.77
2018-12-13T15:30:57.748Z,14.75
2018-12-13T15:33:26.392Z,14.45
2018-12-13T15:35:54.706Z,16.15
2018-12-13T15:38:23.304Z,13.43
2018-12-13T15:40:51.767Z,15.70
2018-12-13T15:43:20.528Z,15.88
2018-12-13T15:45:48.857Z,16.05
2018-12-13T15:48:17.314Z,14.23
2018-12-13T15:50:45.659Z,14.23
2018-12-13T15:53:14.194Z,15.20
2018-12-13T15:55:42.547Z,14.73
2018-12-13T15:58:11.249Z,13.70
2018-12-13T16:00:39.609Z,13.45
2018-12-13T16:03:07.961Z,13.93
2018-12-13T16:05:37.613Z,14.85
2018-12-13T16:08:06.300Z,13.98
2018-12-13T16:10:35.563Z,13.53
2018-12-13T16:13:04.203Z,13.18
2018-12-13T16:15:32.527Z,15.18
2018-12-13T16:18:00.873Z,14.15
2018-12-13T16:20:29.217Z,14.05
2018-12-13T16:22:57.587Z,13.55
2018-12-13T16:25:26.052Z,14.30
2018-12-13T16:27:54.482Z,13.68
2018-12-13T16:30:23.910Z,14.33
2018-12-13T16:32:52.242Z,14.68
2018-12-13T16:35:20.587Z,13.90
2018-12-13T16:37:48.915Z,13.90
2018-12-13T16:40:17.272Z,12.73
2018-12-13T16:42:46.355Z,15.18
2018-12-13T16:45:14.777Z,14.68
2018-12-13T16:47:43.919Z,13.22
2018-12-13T16:50:12.362Z,12.88
2018-12-13T16:52:40.735Z,14.15
2018-12-13T16:55:09.129Z,13.53
2018-12-13T16:57:37.914Z,13.50
2018-12-13T17:00:07.202Z,12.73
2018-12-13T17:02:36.374Z,14.55
2018-12-13T17:05:05.698Z,13.62
2018-12-13T17:07:34.039Z,13.25
2018-12-13T17:10:02.435Z,13.03
2018-12-13T17:12:30.858Z,14.98
2018-12-13T17:14:59.259Z,13.70
2018-12-13T17:17:27.707Z,13.80
2018-12-13T17:19:56.323Z,14.63
2018-12-13T17:22:24.687Z,14.10
2018-12-13T17:24:53.667Z,15.35
2018-12-13T17:27:22.424Z,13.85
2018-12-13T17:29:51.494Z,13.48
2018-12-13T17:32:20.670Z,13.50
2018-12-13T17:34:49.557Z,13.62
2018-12-13T17:37:17.942Z,14.23
2018-12-13T17:39:46.273Z,14.83
2018-12-13T17:42:14.632Z,14.53
2018-12-13T17:44:43.329Z,14.78
2018-12-13T17:47:11.760Z,15.38
2018-12-13T17:49:40.161Z,14.28
2018-12-13T17:52:08.735Z,14.45
2018-12-13T17:54:37.091Z,15.60
2018-12-13T17:57:05.460Z,15.38
2018-12-13T17:59:34.241Z,15.58
2018-12-13T18:02:02.702Z,15.15
2018-12-13T18:04:31.037Z,15.23
2018-12-13T18:06:59.437Z,15.03
2018-12-13T18:09:28.348Z,14.20
2018-12-13T18:11:56.686Z,14.35
2018-12-13T18:14:25.081Z,14.25
2018-12-13T18:16:53.671Z,14.50
2018-12-13T18:19:21.998Z,15.00
2018-12-13T18:21:50.325Z,16.00
2018-12-13T18:24:18.758Z,15.70
2018-12-13T18:26:47.172Z,13.80
2018-12-13T18:29:16.411Z,16.48
2018-12-13T18:31:44.752Z,15.00
2018-12-13T18:34:13.160Z,14.35
2018-12-13T18:36:41.481Z,14.78
2018-12-13T18:39:09.832Z,14.53
2018-12-13T18:41:38.194Z,14.70
2018-12-13T18:44:07.543Z,15.68
2018-12-13T18:46:35.962Z,14.05
2018-12-13T18:49:04.322Z,15.23
2018-12-13T18:51:32.707Z,16.00
2018-12-13T18:54:02.467Z,14.25
2018-12-13T18:56:31.606Z,15.58
2018-12-13T18:58:59.975Z,15.13
2018-12-13T19:01:28.317Z,14.75
2018-12-13T19:03:56.678Z,15.28
2018-12-13T19:06:25.007Z,15.20
2018-12-13T19:08:53.354Z,14.38
2018-12-13T19:11:21.696Z,14.15
2018-12-13T19:13:50.043Z,14.95
2018-12-13T19:16:18.384Z,14.00
2018-12-13T19:18:46.748Z,16.10
2018-12-13T19:21:15.086Z,15.85
2018-12-13T19:23:43.450Z,14.78
2018-12-13T19:26:11.783Z,14.07
2018-12-13T19:28:40.102Z,15.23
2018-12-13T19:31:08.439Z,14.87
2018-12-13T19:33:36.765Z,16.00
2018-12-13T19:36:05.144Z,13.83
2018-12-13T19:38:33.484Z,13.43
2018-12-13T19:41:01.860Z,14.98
2018-12-13T19:43:30.198Z,15.40
2018-12-13T19:45:58.561Z,12.93
2018-12-13T19:48:26.936Z,15.00
2018-12-13T19:50:55.323Z,16.27
2018-12-13T19:53:23.947Z,14.75
2018-12-13T19:55:52.298Z,15.55
2018-12-13T19:58:20.691Z,14.85
2018-12-13T20:00:49.045Z,12.80
2018-12-13T20:03:17.389Z,13.88
2018-12-13T20:05:45.734Z,13.60
2018-12-13T20:08:14.091Z,14.00
2018-12-13T20:10:42.403Z,14.38
2018-12-13T20:13:10.753Z,13.93
2018-12-13T20:15:40.726Z,12.53
2018-12-13T20:18:09.069Z,14.05
2018-12-13T20:20:37.401Z,14.40
2018-12-13T20:23:05.725Z,13.10
2018-12-13T20:25:34.055Z,14.70
2018-12-13T20:28:02.859Z,13.50
2018-12-13T20:30:31.239Z,13.75
2018-12-13T20:32:59.666Z,14.13
2018-12-13T20:35:28.010Z,14.00
2018-12-13T20:37:56.384Z,15.13
2018-12-13T20:40:24.716Z,12.47
2018-12-13T20:42:53.074Z,15.03
2018-12-13T20:45:21.398Z,14.80
2018-12-13T20:47:49.751Z,14.45
2018-12-13T20:50:18.109Z,14.50
2018-12-13T20:52:46.444Z,13.15
2018-12-13T20:55:14.820Z,14.25
2018-12-13T20:57:43.143Z,13.40
2018-12-13T21:00:11.564Z,13.53
2018-12-13T21:02:39.911Z,14.23
2018-12-13T21:05:08.318Z,14.20
2018-12-13T21:07:36.653Z,13.75
2018-12-13T21:10:05.684Z,13.62
2018-12-13T21:12:34.018Z,12.95
2018-12-13T21:15:02.424Z,14.63
2018-12-13T21:17:30.964Z,14.20
2018-12-13T21:19:59.322Z,13.80
2018-12-13T21:22:27.680Z,13.70
2018-12-13T21:24:56.044Z,13.95
2018-12-13T21:27:24.417Z,13.60
2018-12-13T21:29:52.769Z,14.75
2018-12-13T21:32:21.112Z,12.70
2018-12-13T21:34:49.678Z,14.13
2018-12-13T21:37:18.116Z,13.70
2018-12-13T21:39:46.482Z,14.33
2018-12-13T21:42:14.796Z,12.33
2018-12-13T21:44:43.157Z,13.68
2018-12-13T21:47:11.492Z,14.83
2018-12-13T21:49:39.837Z,13.40
2018-12-13T21:52:08.278Z,14.28
2018-12-13T21:54:36.610Z,18.67
2018-12-13T21:57:05.120Z,16.07
2018-12-13T21:59:33.513Z,14.03
2018-12-13T22:02:01.913Z,14.28
2018-12-13T22:04:30.278Z,13.55
2018-12-13T22:06:58.605Z,15.72
2018-12-13T22:09:26.938Z,14.47
2018-12-13T22:11:55.288Z,15.80
2018-12-13T22:14:23.868Z,14.78
2018-12-13T22:16:52.204Z,15.60
2018-12-13T22:19:20.556Z,15.30
2018-12-13T22:21:48.902Z,15.35
2018-12-13T22:24:17.267Z,14.85
2018-12-13T22:26:45.607Z,15.58
2018-12-13T22:29:13.953Z,16.50
2018-12-13T22:31:42.545Z,16.60
2018-12-13T22:34:11.057Z,16.02
2018-12-13T22:36:39.544Z,15.58
2018-12-13T22:39:07.888Z,16.20
2018-12-13T22:41:36.218Z,16.50
2018-12-13T22:44:04.556Z,14.60
2018-12-13T22:46:32.983Z,16.20
2018-12-13T22:49:01.293Z,15.25
2018-12-13T22:51:29.665Z,14.78
2018-12-13T22:53:57.995Z,15.50
2018-12-13T22:56:26.331Z,17.00
2018-12-13T22:58:54.664Z,15.63
2018-12-13T23:01:23.060Z,15.15
2018-12-13T23:03:51.405Z,15.32
2018-12-13T23:06:19.715Z,16.62
2018-12-13T23:08:48.048Z,15.85
2018-12-13T23:11:16.406Z,15.80
2018-12-13T23:13:44.789Z,16.40
2018-12-13T23:16:13.181Z,16.67
2018-12-13T23:18:41.600Z,16.05
2018-12-13T23:21:09.915Z,16.85
2018-12-13T23:23:38.261Z,15.10
2018-12-13T23:26:06.584Z,15.72
2018-12-13T23:28:35.048Z,16.10
2018-12-13T23:31:03.363Z,17.55
2018-12-13T23:33:31.675Z,16.95
2018-12-13T23:36:00.015Z,16.02
2018-12-13T23:38:28.358Z,17.23
2018-12-13T23:40:56.674Z,17.12
2018-12-13T23:43:24.982Z,17.00
2018-12-13T23:45:53.311Z,15.25
2018-12-13T23:48:21.658Z,14.68
2018-12-13T23:50:49.998Z,15.13
2018-12-13T23:53:18.319Z,15.80
2018-12-13T23:55:46.652Z,16.17
2018-12-13T23:58:14.972Z,15.70
